createdAt,value
2017-07-31T00:01:19.674Z,3.60
2017-07-31T00:03:48.043Z,3.40
2017-07-31T00:06:16.378Z,3.50
2017-07-31T00:08:44.684Z,2.60
2017-07-31T00:11:13.035Z,2.80
2017-07-31T00:13:41.349Z,3.87
2017-07-31T00:16:09.684Z,3.33
2017-07-31T00:18:38.057Z,4.43
2017-07-31T00:21:06.414Z,3.33
2017-07-31T00:23:34.754Z,3.53
2017-07-31T00:26:03.106Z,2.77
2017-07-31T00:28:31.427Z,3.77
2017-07-31T00:30:59.765Z,4.00
2017-07-31T00:33:28.118Z,3.50
2017-07-31T00:35:56.445Z,3.63
2017-07-31T00:38:24.787Z,3.20
2017-07-31T00:40:53.091Z,3.23
2017-07-31T00:43:21.432Z,2.93
2017-07-31T00:45:49.767Z,3.80
2017-07-31T00:48:18.232Z,2.90
2017-07-31T00:50:46.541Z,3.10
2017-07-31T00:53:14.874Z,3.00
2017-07-31T00:55:43.210Z,2.57
2017-07-31T00:58:11.566Z,2.80
2017-07-31T01:00:39.874Z,3.47
2017-07-31T01:03:08.222Z,3.33
2017-07-31T01:05:36.553Z,2.97
2017-07-31T01:08:04.887Z,2.93
2017-07-31T01:10:33.209Z,3.23
2017-07-31T01:13:01.513Z,3.00
2017-07-31T01:15:29.847Z,3.03
2017-07-31T01:17:58.176Z,3.87
2017-07-31T01:20:26.501Z,3.60
2017-07-31T01:22:54.812Z,3.23
2017-07-31T01:28:17.156Z,3.20
2017-07-31T01:30:45.616Z,2.43
2017-07-31T01:33:13.939Z,3.17
2017-07-31T01:35:42.270Z,2.53
2017-07-31T01:38:10.591Z,2.90
2017-07-31T01:40:38.915Z,3.10
2017-07-31T01:43:07.275Z,3.63
2017-07-31T01:45:35.615Z,3.10
2017-07-31T01:48:03.946Z,3.33
2017-07-31T01:50:32.270Z,3.00
2017-07-31T01:53:00.613Z,3.30
2017-07-31T01:55:28.920Z,3.30
2017-07-31T01:57:57.284Z,2.90
2017-07-31T02:00:25.598Z,3.13
2017-07-31T02:02:53.942Z,3.13
2017-07-31T02:05:22.240Z,3.40
2017-07-31T02:07:50.582Z,2.80
2017-07-31T02:10:18.887Z,3.33
2017-07-31T02:12:47.195Z,3.77
2017-07-31T02:15:15.521Z,3.03
2017-07-31T02:17:43.825Z,3.60
2017-07-31T02:20:12.205Z,3.80
2017-07-31T02:25:41.405Z,2.70
2017-07-31T02:28:09.709Z,3.53
2017-07-31T02:30:38.214Z,3.87
2017-07-31T02:33:06.521Z,3.40
2017-07-31T02:35:34.852Z,4.00
2017-07-31T02:38:03.181Z,3.40
2017-07-31T02:40:31.518Z,3.80
2017-07-31T02:42:59.829Z,3.13
2017-07-31T02:45:28.175Z,3.20
2017-07-31T02:47:56.490Z,3.53
2017-07-31T02:50:24.826Z,3.43
2017-07-31T02:52:53.139Z,4.17
2017-07-31T02:55:21.489Z,3.80
2017-07-31T02:57:49.934Z,3.60
2017-07-31T03:00:18.247Z,3.83
2017-07-31T03:02:46.617Z,3.93
2017-07-31T03:05:14.922Z,3.90
2017-07-31T03:07:43.235Z,3.20
2017-07-31T03:10:11.537Z,4.07
2017-07-31T03:12:39.869Z,4.10
2017-07-31T03:15:08.176Z,3.10
2017-07-31T03:17:36.501Z,3.93
2017-07-31T03:20:04.803Z,3.33
2017-07-31T03:22:33.138Z,4.47
2017-07-31T03:25:01.451Z,3.93
2017-07-31T03:27:29.797Z,4.17
2017-07-31T03:29:58.093Z,3.60
2017-07-31T03:32:26.402Z,3.43
2017-07-31T03:34:54.724Z,3.80
2017-07-31T03:37:23.027Z,4.73
2017-07-31T03:39:51.351Z,3.57
2017-07-31T03:42:19.837Z,3.50
2017-07-31T03:44:48.161Z,3.90
2017-07-31T03:47:16.478Z,3.03
2017-07-31T03:49:44.815Z,3.90
2017-07-31T03:52:13.133Z,4.00
2017-07-31T03:54:41.456Z,3.93
2017-07-31T03:57:09.780Z,4.40
2017-07-31T03:59:38.103Z,3.83
2017-07-31T04:02:06.409Z,3.30
2017-07-31T04:04:34.736Z,3.47
2017-07-31T04:07:03.045Z,3.33
2017-07-31T04:09:31.349Z,4.40
2017-07-31T04:11:59.680Z,3.70
2017-07-31T04:14:27.999Z,4.50
2017-07-31T04:16:56.333Z,3.47
2017-07-31T04:19:24.641Z,4.20
2017-07-31T04:21:52.969Z,3.97
2017-07-31T04:24:21.273Z,3.30
2017-07-31T04:26:49.604Z,3.53
2017-07-31T04:29:17.918Z,4.50
2017-07-31T04:31:46.241Z,4.73
2017-07-31T04:34:14.556Z,4.20
2017-07-31T04:36:42.893Z,4.37
2017-07-31T04:39:11.212Z,5.00
2017-07-31T04:41:39.551Z,3.83
2017-07-31T04:44:07.844Z,3.90
2017-07-31T04:46:36.176Z,3.70
2017-07-31T04:49:04.505Z,3.90
2017-07-31T04:51:32.806Z,3.20
2017-07-31T04:54:01.136Z,4.17
2017-07-31T04:56:29.434Z,3.77
2017-07-31T04:58:57.758Z,3.97
2017-07-31T05:01:26.059Z,4.00
2017-07-31T05:03:54.380Z,3.10
2017-07-31T05:06:22.770Z,4.27
2017-07-31T05:08:51.246Z,4.40
2017-07-31T05:11:19.557Z,3.77
2017-07-31T05:13:47.883Z,4.00
2017-07-31T05:16:16.272Z,3.90
2017-07-31T05:18:44.622Z,4.03
2017-07-31T05:21:12.935Z,4.50
2017-07-31T05:23:41.237Z,4.27
2017-07-31T05:26:09.571Z,4.83
2017-07-31T05:28:37.876Z,3.40
2017-07-31T05:31:06.202Z,4.07
2017-07-31T05:33:34.509Z,3.60
2017-07-31T05:36:02.823Z,3.50
2017-07-31T05:38:31.137Z,3.73
2017-07-31T05:40:59.462Z,3.00
2017-07-31T05:43:27.762Z,3.83
2017-07-31T05:45:56.088Z,3.50
2017-07-31T05:48:24.390Z,3.30
2017-07-31T05:50:52.730Z,4.00
2017-07-31T05:53:21.030Z,3.10
2017-07-31T05:55:49.338Z,3.27
2017-07-31T05:58:17.666Z,3.20
2017-07-31T06:00:45.969Z,2.60
2017-07-31T06:03:14.285Z,2.80
2017-07-31T06:05:42.593Z,2.77
2017-07-31T06:08:10.928Z,2.70
2017-07-31T06:10:39.248Z,3.10
2017-07-31T06:13:07.564Z,3.53
2017-07-31T06:15:35.865Z,3.20
2017-07-31T06:18:04.204Z,2.73
2017-07-31T06:20:32.538Z,2.70
2017-07-31T06:23:00.837Z,3.07
2017-07-31T06:25:29.190Z,2.53
2017-07-31T06:27:57.487Z,2.60
2017-07-31T06:30:25.813Z,3.20
2017-07-31T06:32:54.124Z,2.53
2017-07-31T06:35:22.445Z,2.60
2017-07-31T06:37:50.774Z,2.70
2017-07-31T06:40:19.276Z,2.90
2017-07-31T06:42:47.576Z,3.43
2017-07-31T06:45:15.905Z,3.70
2017-07-31T06:47:44.216Z,3.20
2017-07-31T06:50:12.521Z,2.90
2017-07-31T06:52:40.857Z,2.80
2017-07-31T06:55:09.153Z,2.83
2017-07-31T06:57:37.480Z,3.10
2017-07-31T07:00:05.783Z,3.53
2017-07-31T07:02:34.113Z,3.17
2017-07-31T07:05:02.423Z,2.67
2017-07-31T07:07:30.749Z,3.60
2017-07-31T07:09:59.059Z,3.70
2017-07-31T07:12:27.388Z,3.20
2017-07-31T07:14:55.698Z,2.70
2017-07-31T07:17:24.026Z,2.90
2017-07-31T07:19:52.329Z,2.77
2017-07-31T07:22:20.665Z,3.00
2017-07-31T07:24:48.998Z,2.67
2017-07-31T07:27:17.293Z,2.57
2017-07-31T07:29:45.623Z,2.87
2017-07-31T07:32:13.982Z,2.47
2017-07-31T07:34:42.311Z,2.90
2017-07-31T07:37:10.612Z,2.90
2017-07-31T07:39:38.932Z,2.70
2017-07-31T07:42:07.240Z,2.40
2017-07-31T07:44:35.571Z,3.07
2017-07-31T07:47:03.958Z,3.10
2017-07-31T07:49:32.281Z,3.00
2017-07-31T07:52:00.583Z,3.07
2017-07-31T07:54:28.908Z,2.93
2017-07-31T07:56:57.236Z,3.10
2017-07-31T07:59:25.572Z,3.03
2017-07-31T08:01:53.977Z,2.90
2017-07-31T08:04:23.192Z,2.43
2017-07-31T08:06:51.519Z,2.90
2017-07-31T08:09:19.816Z,2.63
2017-07-31T08:11:48.145Z,2.80
2017-07-31T08:14:16.445Z,2.87
2017-07-31T08:16:45.071Z,2.80
2017-07-31T08:19:13.386Z,2.53
2017-07-31T08:21:41.713Z,2.57
2017-07-31T08:24:10.138Z,2.50
2017-07-31T08:26:38.470Z,2.87
2017-07-31T08:29:06.782Z,2.87
2017-07-31T08:31:35.118Z,2.73
2017-07-31T08:34:03.442Z,2.33
2017-07-31T08:36:31.741Z,2.33
2017-07-31T08:39:00.072Z,3.13
2017-07-31T08:41:28.385Z,2.50
2017-07-31T08:43:56.720Z,2.73
2017-07-31T08:46:25.018Z,2.50
2017-07-31T08:48:53.348Z,3.20
2017-07-31T08:51:21.652Z,3.10
2017-07-31T08:53:49.981Z,2.70
2017-07-31T08:56:18.321Z,2.60
2017-07-31T08:58:46.673Z,3.17
2017-07-31T09:01:14.961Z,2.70
2017-07-31T09:03:43.291Z,2.77
2017-07-31T09:06:11.606Z,2.70
2017-07-31T09:08:39.920Z,3.00
2017-07-31T09:11:08.228Z,2.50
2017-07-31T09:13:36.530Z,2.53
2017-07-31T09:16:04.857Z,2.37
2017-07-31T09:18:33.166Z,3.63
2017-07-31T09:21:01.505Z,2.80
2017-07-31T09:23:29.801Z,3.03
2017-07-31T09:25:58.132Z,2.93
2017-07-31T09:28:26.434Z,2.77
2017-07-31T09:30:54.752Z,2.40
2017-07-31T09:33:23.065Z,2.50
2017-07-31T09:35:51.397Z,3.03
2017-07-31T09:38:19.696Z,3.87
2017-07-31T09:40:48.033Z,2.87
2017-07-31T09:43:16.347Z,2.53
2017-07-31T09:45:44.668Z,2.70
2017-07-31T09:48:12.973Z,3.93
2017-07-31T09:50:41.273Z,3.00
2017-07-31T09:53:09.608Z,3.30
2017-07-31T09:55:37.909Z,3.07
2017-07-31T09:58:06.230Z,2.80
2017-07-31T10:00:34.592Z,2.90
2017-07-31T10:03:02.923Z,2.87
2017-07-31T10:05:31.228Z,2.90
2017-07-31T10:07:59.561Z,2.87
2017-07-31T10:10:27.872Z,4.10
2017-07-31T10:12:56.215Z,3.17
2017-07-31T10:15:24.541Z,3.20
2017-07-31T10:17:52.874Z,2.60
2017-07-31T10:20:21.188Z,2.53
2017-07-31T10:22:49.514Z,2.23
2017-07-31T10:25:17.819Z,2.93
2017-07-31T10:27:46.113Z,2.63
2017-07-31T10:30:14.458Z,3.00
2017-07-31T10:32:42.772Z,3.03
2017-07-31T10:35:11.101Z,2.27
2017-07-31T10:37:39.414Z,2.73
2017-07-31T10:40:07.751Z,2.63
2017-07-31T10:42:36.055Z,2.93
2017-07-31T10:45:04.369Z,2.63
2017-07-31T10:47:32.674Z,2.30
2017-07-31T10:50:01.011Z,2.70
2017-07-31T10:52:29.322Z,3.10
2017-07-31T10:54:57.649Z,2.30
2017-07-31T10:57:25.966Z,2.53
2017-07-31T10:59:54.274Z,2.57
2017-07-31T11:02:22.652Z,2.90
2017-07-31T11:04:50.952Z,2.63
2017-07-31T11:07:19.284Z,2.67
2017-07-31T11:09:47.590Z,3.03
2017-07-31T11:12:15.923Z,2.87
2017-07-31T11:14:44.228Z,2.20
2017-07-31T11:17:12.560Z,2.80
2017-07-31T11:19:40.873Z,2.40
2017-07-31T11:22:09.201Z,2.30
2017-07-31T11:24:37.505Z,2.53
2017-07-31T11:27:05.843Z,2.60
2017-07-31T11:29:35.004Z,2.63
2017-07-31T11:32:03.333Z,2.80
2017-07-31T11:34:31.632Z,2.70
2017-07-31T11:36:59.933Z,2.30
2017-07-31T11:39:28.262Z,2.33
2017-07-31T11:41:56.565Z,3.03
2017-07-31T11:44:24.925Z,2.30
2017-07-31T11:46:53.224Z,2.43
2017-07-31T11:49:21.548Z,2.33
2017-07-31T11:51:49.863Z,2.03
2017-07-31T11:54:18.190Z,2.57
2017-07-31T11:56:46.497Z,2.57
2017-07-31T11:59:14.826Z,2.47
2017-07-31T12:01:43.140Z,2.67
2017-07-31T12:04:11.477Z,2.43
2017-07-31T12:06:39.778Z,2.27
2017-07-31T12:09:08.101Z,2.60
2017-07-31T12:11:36.396Z,3.07
2017-07-31T12:14:04.697Z,2.37
2017-07-31T12:16:33.019Z,2.40
2017-07-31T12:19:01.321Z,2.27
2017-07-31T12:21:29.649Z,2.77
2017-07-31T12:23:57.957Z,2.80
2017-07-31T12:26:26.276Z,2.50
2017-07-31T12:28:54.580Z,2.40
2017-07-31T12:31:22.929Z,2.43
2017-07-31T12:33:51.232Z,2.10
2017-07-31T12:36:19.565Z,2.80
2017-07-31T12:38:47.856Z,2.43
2017-07-31T12:41:16.162Z,2.50
2017-07-31T12:43:44.489Z,2.80
2017-07-31T12:46:12.794Z,2.57
2017-07-31T12:48:41.134Z,2.33
2017-07-31T12:51:09.451Z,2.73
2017-07-31T12:53:37.799Z,3.40
2017-07-31T12:56:06.103Z,2.73
2017-07-31T12:58:34.429Z,3.13
2017-07-31T13:01:03.634Z,2.70
2017-07-31T13:03:31.960Z,2.70
2017-07-31T13:06:00.279Z,2.83
2017-07-31T13:08:28.677Z,2.83
2017-07-31T13:10:56.989Z,3.53
2017-07-31T13:13:25.290Z,3.33
2017-07-31T13:15:53.615Z,3.47
2017-07-31T13:18:21.922Z,3.60
2017-07-31T13:20:50.245Z,3.23
2017-07-31T13:23:18.573Z,4.43
2017-07-31T13:25:46.910Z,3.33
2017-07-31T13:28:15.203Z,3.43
2017-07-31T13:30:43.526Z,3.50
2017-07-31T13:33:11.825Z,3.60
2017-07-31T13:35:40.263Z,4.00
2017-07-31T13:38:08.573Z,3.70
2017-07-31T13:40:36.909Z,3.60
2017-07-31T13:43:05.218Z,3.50
2017-07-31T13:45:33.552Z,2.77
2017-07-31T13:48:01.876Z,3.77
2017-07-31T13:50:30.194Z,3.80
2017-07-31T13:52:58.523Z,3.67
2017-07-31T13:55:26.828Z,3.60
2017-07-31T13:57:55.150Z,3.70
2017-07-31T14:00:23.449Z,4.00
2017-07-31T14:02:51.797Z,3.37
2017-07-31T14:05:20.109Z,3.40
2017-07-31T14:07:48.432Z,3.50
2017-07-31T14:10:16.747Z,3.80
2017-07-31T14:12:45.082Z,4.53
2017-07-31T14:15:13.395Z,2.80
2017-07-31T14:17:41.702Z,3.80
2017-07-31T14:20:10.036Z,3.10
2017-07-31T14:22:38.347Z,3.40
2017-07-31T14:25:06.668Z,3.40
2017-07-31T14:27:34.974Z,3.60
2017-07-31T14:30:03.326Z,3.53
2017-07-31T14:32:31.639Z,4.20
2017-07-31T14:34:59.974Z,3.90
2017-07-31T14:37:28.300Z,3.33
2017-07-31T14:39:56.625Z,3.73
2017-07-31T14:42:24.929Z,3.63
2017-07-31T14:44:53.268Z,3.70
2017-07-31T14:47:21.578Z,3.87
2017-07-31T14:49:49.887Z,3.60
2017-07-31T14:52:18.216Z,3.30
2017-07-31T14:54:46.535Z,3.30
2017-07-31T14:57:14.869Z,3.57
2017-07-31T14:59:43.196Z,4.20
2017-07-31T15:02:11.516Z,4.73
2017-07-31T15:04:39.821Z,3.57
2017-07-31T15:07:08.189Z,5.00
2017-07-31T15:09:36.501Z,4.90
2017-07-31T15:12:04.804Z,3.93
2017-07-31T15:14:33.145Z,3.40
2017-07-31T15:17:01.460Z,3.90
2017-07-31T15:19:29.794Z,3.83
2017-07-31T15:21:58.092Z,4.30
2017-07-31T15:24:26.425Z,3.50
2017-07-31T15:26:54.737Z,3.50
2017-07-31T15:29:23.129Z,3.80
2017-07-31T15:31:51.437Z,3.90
2017-07-31T15:34:19.741Z,3.03
2017-07-31T15:36:48.080Z,3.20
2017-07-31T15:39:16.386Z,3.77
2017-07-31T15:41:44.719Z,3.50
2017-07-31T15:44:13.070Z,3.23
2017-07-31T15:46:41.417Z,3.00
2017-07-31T15:49:09.731Z,3.20
2017-07-31T15:51:38.070Z,3.10
2017-07-31T15:54:06.382Z,3.33
2017-07-31T15:56:34.689Z,2.77
2017-07-31T15:59:03.077Z,2.90
2017-07-31T16:01:31.380Z,3.53
2017-07-31T16:04:00.629Z,2.87
2017-07-31T16:06:28.930Z,2.40
2017-07-31T16:08:57.253Z,2.93
2017-07-31T16:11:25.715Z,2.53
2017-07-31T16:13:54.043Z,2.33
2017-07-31T16:16:22.352Z,3.40
2017-07-31T16:18:50.665Z,3.60
2017-07-31T16:21:18.988Z,2.43
2017-07-31T16:23:47.290Z,2.77
2017-07-31T16:26:15.667Z,2.67
2017-07-31T16:28:43.964Z,3.73
2017-07-31T16:31:12.328Z,3.03
2017-07-31T16:33:40.638Z,3.07
2017-07-31T16:36:08.977Z,2.23
2017-07-31T16:38:38.087Z,2.20
2017-07-31T16:41:06.509Z,2.40
2017-07-31T16:43:48.606Z,2.63
2017-07-31T16:46:23.570Z,3.80
2017-07-31T16:49:13.504Z,3.10
2017-07-31T16:51:41.847Z,2.60
2017-07-31T16:54:10.157Z,2.50
2017-07-31T16:56:38.493Z,1.90
2017-07-31T16:59:06.799Z,2.47
2017-07-31T17:01:35.135Z,2.97
2017-07-31T17:04:03.441Z,2.60
2017-07-31T17:06:31.751Z,3.33
2017-07-31T17:09:00.077Z,3.10
2017-07-31T17:11:28.381Z,2.23
2017-07-31T17:13:56.704Z,2.33
2017-07-31T17:16:25.035Z,2.90
2017-07-31T17:18:53.503Z,3.47
2017-07-31T17:21:21.812Z,3.30
2017-07-31T17:23:50.143Z,2.60
2017-07-31T17:26:18.451Z,3.20
2017-07-31T17:28:46.757Z,2.30
2017-07-31T17:31:15.091Z,2.53
2017-07-31T17:33:43.503Z,2.70
2017-07-31T17:36:11.828Z,2.80
2017-07-31T17:38:40.132Z,2.53
2017-07-31T17:41:08.474Z,2.20
2017-07-31T17:43:36.776Z,2.27
2017-07-31T17:46:05.105Z,2.67
2017-07-31T17:48:33.501Z,3.50
2017-07-31T17:51:01.799Z,2.50
2017-07-31T17:53:30.125Z,2.67
2017-07-31T17:55:58.442Z,2.43
2017-07-31T17:58:26.972Z,3.20
2017-07-31T18:00:55.281Z,2.50
2017-07-31T18:03:23.646Z,2.57
2017-07-31T18:05:51.952Z,2.20
2017-07-31T18:08:20.248Z,2.50
2017-07-31T18:10:48.571Z,2.00
2017-07-31T18:13:16.933Z,2.13
2017-07-31T18:15:45.763Z,2.97
2017-07-31T18:18:14.162Z,2.17
2017-07-31T18:20:42.484Z,2.50
2017-07-31T18:23:10.792Z,2.13
2017-07-31T18:25:39.121Z,2.60
2017-07-31T18:28:07.434Z,2.70
2017-07-31T18:30:35.789Z,3.10
2017-07-31T18:33:06.919Z,2.77
2017-07-31T18:35:35.274Z,2.60
2017-07-31T18:38:03.672Z,2.60
2017-07-31T18:40:32.097Z,2.50
2017-07-31T18:43:00.416Z,3.27
2017-07-31T18:45:28.714Z,3.10
2017-07-31T18:47:57.114Z,3.13
2017-07-31T18:50:25.491Z,3.40
2017-07-31T18:52:54.088Z,2.90
2017-07-31T18:55:22.461Z,4.10
2017-07-31T18:57:50.791Z,3.50
2017-07-31T19:00:19.129Z,3.73
2017-07-31T19:02:47.540Z,2.90
2017-07-31T19:05:15.854Z,2.97
2017-07-31T19:07:44.180Z,3.20
2017-07-31T19:10:12.487Z,3.17
2017-07-31T19:12:41.796Z,2.73
2017-07-31T19:15:10.125Z,3.67
2017-07-31T19:17:38.446Z,3.43
2017-07-31T19:20:06.793Z,2.70
2017-07-31T19:22:35.092Z,2.73
2017-07-31T19:25:03.448Z,5.30
2017-07-31T19:27:31.889Z,4.87
2017-07-31T19:30:00.244Z,4.93
2017-07-31T19:32:31.405Z,3.70
2017-07-31T19:34:59.734Z,3.87
2017-07-31T19:37:28.071Z,3.20
2017-07-31T19:39:56.408Z,3.77
2017-07-31T19:42:24.788Z,3.97
2017-07-31T19:44:53.112Z,3.43
2017-07-31T19:47:21.413Z,3.27
2017-07-31T19:49:49.712Z,3.60
2017-07-31T19:52:18.226Z,3.83
2017-07-31T19:54:46.528Z,3.50
2017-07-31T19:57:14.870Z,4.23
2017-07-31T19:59:43.177Z,3.83
2017-07-31T20:02:11.502Z,3.20
2017-07-31T20:04:39.830Z,4.00
2017-07-31T20:07:08.149Z,4.77
2017-07-31T20:09:36.456Z,3.53
2017-07-31T20:12:04.784Z,4.43
2017-07-31T20:14:33.090Z,3.63
2017-07-31T20:17:01.417Z,4.23
2017-07-31T20:19:29.718Z,4.50
2017-07-31T20:21:58.022Z,4.50
2017-07-31T20:24:26.352Z,5.40
2017-07-31T20:26:54.651Z,3.73
2017-07-31T20:29:22.997Z,4.23
2017-07-31T20:31:51.461Z,3.67
2017-07-31T20:34:19.792Z,3.87
2017-07-31T20:36:48.108Z,3.80
2017-07-31T20:39:16.501Z,4.30
2017-07-31T20:41:44.804Z,4.30
2017-07-31T20:44:13.134Z,3.70
2017-07-31T20:46:41.436Z,4.47
2017-07-31T20:49:09.774Z,4.23
2017-07-31T20:51:38.099Z,4.63
2017-07-31T20:54:06.412Z,4.40
2017-07-31T20:56:34.749Z,5.47
2017-07-31T20:59:03.068Z,5.07
2017-07-31T21:01:31.396Z,4.90
2017-07-31T21:03:59.706Z,5.10
2017-07-31T21:06:28.033Z,4.60
2017-07-31T21:08:56.353Z,5.27
2017-07-31T21:11:24.723Z,5.77
2017-07-31T21:13:53.047Z,5.63
2017-07-31T21:16:21.391Z,5.53
2017-07-31T21:18:49.696Z,5.10
2017-07-31T21:21:17.999Z,4.83
2017-07-31T21:23:46.385Z,5.70
2017-07-31T21:26:14.690Z,4.87
2017-07-31T21:28:43.013Z,4.77
2017-07-31T21:31:11.314Z,4.80
2017-07-31T21:33:39.633Z,4.83
2017-07-31T21:36:07.937Z,5.83
2017-07-31T21:38:36.266Z,4.90
2017-07-31T21:41:04.560Z,5.20
2017-07-31T21:43:32.880Z,4.10
2017-07-31T21:46:01.199Z,5.27
2017-07-31T21:48:29.541Z,4.57
2017-07-31T21:50:57.845Z,4.23
2017-07-31T21:53:26.141Z,4.30
2017-07-31T21:55:54.473Z,4.37
2017-07-31T21:58:22.789Z,4.80
2017-07-31T22:00:51.125Z,4.87
2017-07-31T22:03:19.446Z,4.20
2017-07-31T22:05:47.784Z,5.20
2017-07-31T22:08:16.097Z,4.70
2017-07-31T22:10:44.434Z,5.00
2017-07-31T22:13:12.743Z,4.77
2017-07-31T22:15:41.072Z,5.90
2017-07-31T22:18:15.071Z,5.30
2017-07-31T22:20:49.001Z,4.50
2017-07-31T22:23:17.311Z,5.20
2017-07-31T22:25:45.637Z,4.87
2017-07-31T22:28:13.941Z,5.00
2017-07-31T22:30:42.252Z,5.10
2017-07-31T22:33:10.583Z,5.07
2017-07-31T22:35:38.890Z,4.80
2017-07-31T22:38:07.962Z,4.50
2017-07-31T22:40:36.271Z,4.97
2017-07-31T22:43:04.593Z,5.00
2017-07-31T22:45:32.892Z,4.97
2017-07-31T22:48:01.226Z,4.37
2017-07-31T22:50:29.538Z,4.20
2017-07-31T22:52:57.872Z,4.90
2017-07-31T22:55:26.193Z,5.00
2017-07-31T22:57:54.530Z,4.70
2017-07-31T23:00:22.844Z,5.60
2017-07-31T23:02:51.170Z,5.30
2017-07-31T23:05:19.501Z,6.10
2017-07-31T23:07:47.803Z,7.10
2017-07-31T23:10:16.132Z,5.40
2017-07-31T23:12:44.441Z,5.10
2017-07-31T23:15:12.792Z,5.83
2017-07-31T23:17:41.120Z,5.10
2017-07-31T23:20:09.445Z,5.20
2017-07-31T23:22:37.753Z,5.67
2017-07-31T23:25:06.093Z,6.93
2017-07-31T23:27:34.405Z,5.70
2017-07-31T23:30:02.740Z,6.70
2017-07-31T23:32:31.074Z,5.47
2017-07-31T23:34:59.377Z,5.80
2017-07-31T23:37:27.703Z,6.20
2017-07-31T23:39:56.012Z,5.80
2017-07-31T23:42:24.342Z,5.70
2017-07-31T23:44:52.656Z,6.10
2017-07-31T23:47:21.007Z,6.33
2017-07-31T23:49:49.312Z,6.60
2017-07-31T23:52:17.641Z,6.03
2017-07-31T23:54:45.948Z,6.03
2017-07-31T23:57:14.288Z,5.80
2017-07-31T23:59:42.606Z,6.13
